Time;durP1;ratioP1;P1;durP2;ratioP2;P2;SDS_P1;SDS_P2;PMS_P1;PMS_P2;Temp;Humidity;BMP_temperature;BMP_pressure;BME280_temperature;BME280_humidity;BME280_pressure;Samples;Min_cycle;Max_cycle;Signal;HPM_P1;HPM_P2
2023/12/10 00:00:50;;;;;;;23.13;3.65;;;;;;;;;;8278750;28;20040;-56
2023/12/10 00:04:50;;;;;;;26.63;4.68;;;;;;;;;;8279713;28;20148;-54
2023/12/10 00:08:50;;;;;;;20.00;3.60;;;;;;;;;;8276427;28;20047;-56
2023/12/10 00:12:51;;;;;;;22.30;4.03;;;;;;;;;;8275115;28;20603;-57
2023/12/10 00:16:51;;;;;;;23.67;3.40;;;;;;;;;;8282435;28;20029;-58
2023/12/10 00:20:51;;;;;;;25.73;4.25;;;;;;;;;;8273921;28;20108;-58
2023/12/10 00:24:51;;;;;;;18.70;4.40;;;;;;;;;;8276778;28;20032;-58
2023/12/10 00:28:52;;;;;;;27.58;4.68;;;;;;;;;;8277685;28;20038;-57
2023/12/10 00:32:53;;;;;;;31.33;4.50;;;;;;;;;;8278989;28;20395;-56
2023/12/10 00:36:53;;;;;;;24.63;4.22;;;;;;;;;;8279342;28;20289;-56
2023/12/10 00:40:53;;;;;;;24.25;3.90;;;;;;;;;;8282895;28;20104;-57
2023/12/10 00:44:53;;;;;;;22.40;3.72;;;;;;;;;;8285227;28;22048;-57
2023/12/10 00:48:54;;;;;;;31.43;4.43;;;;;;;;;;8278072;28;20045;-56
2023/12/10 00:52:54;;;;;;;25.05;4.15;;;;;;;;;;8276394;28;20060;-56
2023/12/10 00:56:54;;;;;;;26.52;4.57;;;;;;;;;;8280887;28;20029;-56
2023/12/10 01:00:54;;;;;;;30.45;4.78;;;;;;;;;;8281970;28;20828;-57
2023/12/10 01:04:55;;;;;;;27.93;4.47;;;;;;;;;;8283599;28;20033;-56
2023/12/10 01:08:55;;;;;;;28.83;4.85;;;;;;;;;;8281103;28;20135;-57
2023/12/10 01:12:56;;;;;;;27.02;5.05;;;;;;;;;;8283717;28;20029;-56
2023/12/10 01:16:57;;;;;;;31.27;5.05;;;;;;;;;;8284294;28;20038;-57
2023/12/10 01:20:58;;;;;;;27.23;5.40;;;;;;;;;;8283665;28;21940;-56
2023/12/10 01:24:58;;;;;;;20.37;3.87;;;;;;;;;;8281984;28;20021;-55
2023/12/10 01:28:58;;;;;;;28.10;5.10;;;;;;;;;;8281050;28;20322;-55
2023/12/10 01:32:59;;;;;;;32.45;5.00;;;;;;;;;;8284423;28;20124;-56
2023/12/10 01:36:59;;;;;;;24.08;3.97;;;;;;;;;;8279164;28;20031;-56
2023/12/10 01:40:59;;;;;;;28.42;5.00;;;;;;;;;;8278345;28;20048;-56
2023/12/10 01:45:00;;;;;;;27.38;4.75;;;;;;;;;;8280608;28;20093;-57
2023/12/10 01:49:00;;;;;;;35.00;5.05;;;;;;;;;;8277931;28;20186;-57
2023/12/10 01:53:01;;;;;;;27.90;4.50;;;;;;;;;;8281393;28;20371;-57
2023/12/10 01:57:02;;;;;;;17.20;3.20;;;;;;;;;;8279664;28;20028;-57
2023/12/10 02:01:05;;;;;;;18.10;3.17;;;;;;;;;;8278087;28;20041;-58
2023/12/10 02:05:06;;;;;;;24.00;3.45;;;;;;;;;;8284318;28;20028;-58
2023/12/10 02:09:12;;;;;;;13.88;2.88;;;;;;;;;;8282504;28;20502;-58
2023/12/10 02:13:13;;;;;;;13.90;2.50;;;;;;;;;;8286591;28;20394;-57
2023/12/10 02:17:14;;;;;;;13.15;2.35;;;;;;;;;;8287061;28;20038;-57
2023/12/10 02:21:14;;;;;;;18.57;2.43;;;;;;;;;;8278728;28;20159;-57
2023/12/10 02:25:16;;;;;;;7.88;1.83;;;;;;;;;;8282714;28;20033;-57
2023/12/10 02:29:16;;;;;;;15.07;2.58;;;;;;;;;;8276189;28;21092;-58
2023/12/10 02:33:16;;;;;;;13.52;2.42;;;;;;;;;;8280643;28;20151;-56
2023/12/10 02:37:16;;;;;;;14.85;2.65;;;;;;;;;;8280240;28;20021;-58
2023/12/10 02:41:16;;;;;;;16.98;2.88;;;;;;;;;;8276929;28;20029;-57
2023/12/10 02:45:17;;;;;;;10.90;2.20;;;;;;;;;;8294567;28;20026;-57
2023/12/10 02:49:17;;;;;;;12.75;2.70;;;;;;;;;;8278938;28;20048;-56
2023/12/10 02:53:17;;;;;;;12.00;2.60;;;;;;;;;;8281789;28;20067;-57
2023/12/10 02:57:17;;;;;;;12.73;2.35;;;;;;;;;;8276279;28;20274;-56
2023/12/10 03:01:18;;;;;;;15.50;2.92;;;;;;;;;;8283514;28;20049;-55
2023/12/10 03:05:18;;;;;;;11.73;2.70;;;;;;;;;;8289459;28;20470;-56
2023/12/10 03:09:18;;;;;;;12.15;2.40;;;;;;;;;;8283347;28;20037;-56
2023/12/10 03:13:18;;;;;;;15.73;2.55;;;;;;;;;;8289904;28;20211;-56
2023/12/10 03:17:19;;;;;;;14.00;2.22;;;;;;;;;;8283443;28;20644;-55
2023/12/10 03:21:19;;;;;;;10.85;2.30;;;;;;;;;;8279118;28;20032;-56
2023/12/10 03:25:19;;;;;;;13.90;2.28;;;;;;;;;;8286611;28;20116;-56
2023/12/10 03:29:19;;;;;;;14.35;2.60;;;;;;;;;;8285372;28;20041;-55
2023/12/10 03:33:19;;;;;;;10.40;2.33;;;;;;;;;;8287923;28;20049;-57
2023/12/10 03:37:21;;;;;;;22.33;3.20;;;;;;;;;;8287638;28;20024;-55
2023/12/10 03:41:21;;;;;;;12.77;2.92;;;;;;;;;;8286456;28;20026;-56
2023/12/10 03:45:21;;;;;;;12.25;2.60;;;;;;;;;;8286023;28;20021;-55
2023/12/10 03:49:21;;;;;;;14.13;2.80;;;;;;;;;;8277232;28;20033;-57
2023/12/10 03:53:22;;;;;;;15.90;3.08;;;;;;;;;;8288921;28;20557;-57
2023/12/10 03:57:22;;;;;;;12.85;3.00;;;;;;;;;;8290419;28;20030;-56
2023/12/10 04:01:23;;;;;;;13.43;2.35;;;;;;;;;;8288178;28;20702;-56
2023/12/10 04:05:23;;;;;;;11.38;2.28;;;;;;;;;;8289336;28;20029;-57
2023/12/10 04:09:23;;;;;;;15.27;3.28;;;;;;;;;;8288228;28;20549;-56
2023/12/10 04:13:23;;;;;;;14.03;2.83;;;;;;;;;;8289952;28;20078;-57
2023/12/10 04:17:23;;;;;;;22.70;3.10;;;;;;;;;;8291578;28;20279;-57
2023/12/10 04:21:24;;;;;;;14.88;3.00;;;;;;;;;;8284960;28;20036;-56
2023/12/10 04:25:24;;;;;;;22.02;4.07;;;;;;;;;;8285339;28;20162;-57
2023/12/10 04:29:24;;;;;;;16.58;3.58;;;;;;;;;;8289477;28;20155;-57
2023/12/10 04:33:24;;;;;;;23.90;3.15;;;;;;;;;;8289239;28;20037;-56
2023/12/10 04:37:25;;;;;;;19.70;4.30;;;;;;;;;;8289774;28;20816;-58
2023/12/10 04:41:25;;;;;;;24.17;4.35;;;;;;;;;;8287417;28;20107;-57
2023/12/10 04:45:25;;;;;;;26.00;3.65;;;;;;;;;;8286556;28;20980;-56
2023/12/10 04:49:25;;;;;;;18.58;3.70;;;;;;;;;;8281580;28;20037;-56
2023/12/10 04:53:25;;;;;;;16.25;3.17;;;;;;;;;;8277656;28;20033;-57
2023/12/10 04:57:26;;;;;;;24.30;3.75;;;;;;;;;;8281792;28;20176;-56
2023/12/10 05:01:26;;;;;;;22.20;4.00;;;;;;;;;;8282877;28;20045;-57
2023/12/10 05:05:26;;;;;;;26.30;4.05;;;;;;;;;;8280814;28;20032;-57
2023/12/10 05:09:27;;;;;;;22.93;3.53;;;;;;;;;;8283781;28;20059;-57
2023/12/10 05:13:27;;;;;;;19.45;2.60;;;;;;;;;;8285825;28;20712;-58
2023/12/10 05:17:27;;;;;;;21.08;3.53;;;;;;;;;;8301164;28;20029;-57
2023/12/10 05:21:27;;;;;;;15.15;2.90;;;;;;;;;;8280781;28;20083;-57
2023/12/10 05:25:28;;;;;;;18.23;3.13;;;;;;;;;;8279782;28;20080;-57
2023/12/10 05:29:28;;;;;;;24.50;3.70;;;;;;;;;;8290775;28;20404;-56
2023/12/10 05:33:28;;;;;;;19.52;3.45;;;;;;;;;;8281676;28;20072;-57
2023/12/10 05:37:28;;;;;;;21.02;3.63;;;;;;;;;;8278098;28;20025;-57
2023/12/10 05:41:29;;;;;;;23.67;3.35;;;;;;;;;;8279976;28;20029;-57
2023/12/10 05:45:29;;;;;;;19.35;3.78;;;;;;;;;;8280625;28;20175;-56
2023/12/10 05:49:29;;;;;;;18.35;2.97;;;;;;;;;;8278602;28;20116;-57
2023/12/10 05:53:29;;;;;;;17.60;3.40;;;;;;;;;;8282689;28;20029;-57
2023/12/10 05:57:30;;;;;;;19.92;3.28;;;;;;;;;;8278716;28;20017;-58
2023/12/10 06:01:30;;;;;;;15.68;3.42;;;;;;;;;;8286693;28;20140;-58
2023/12/10 06:05:30;;;;;;;19.88;3.83;;;;;;;;;;8286189;28;20119;-57
2023/12/10 06:09:30;;;;;;;16.23;3.20;;;;;;;;;;8280623;28;20027;-59
2023/12/10 06:13:30;;;;;;;13.50;2.87;;;;;;;;;;8277191;28;20115;-57
2023/12/10 06:17:31;;;;;;;17.17;3.35;;;;;;;;;;8276141;28;20279;-57
2023/12/10 06:21:32;;;;;;;15.10;3.13;;;;;;;;;;8280332;28;20025;-59
2023/12/10 06:25:32;;;;;;;19.70;3.53;;;;;;;;;;8280353;28;20032;-56
2023/12/10 06:29:32;;;;;;;16.83;3.00;;;;;;;;;;8277310;28;20140;-58
2023/12/10 06:33:33;;;;;;;14.55;2.70;;;;;;;;;;8275959;28;20283;-57
2023/12/10 06:37:33;;;;;;;16.50;3.20;;;;;;;;;;8274369;28;20124;-56
2023/12/10 06:41:33;;;;;;;15.02;2.90;;;;;;;;;;8280066;28;21150;-57
2023/12/10 06:45:33;;;;;;;15.33;2.63;;;;;;;;;;8281272;28;20036;-57
2023/12/10 06:49:34;;;;;;;22.20;3.70;;;;;;;;;;8268141;28;20325;-57
2023/12/10 06:53:34;;;;;;;24.53;3.73;;;;;;;;;;8272869;28;20056;-56
2023/12/10 06:57:35;;;;;;;24.67;3.57;;;;;;;;;;8275747;28;20279;-57
2023/12/10 07:01:37;;;;;;;18.38;3.20;;;;;;;;;;8277831;28;20291;-57
2023/12/10 07:05:37;;;;;;;14.80;2.58;;;;;;;;;;8279029;28;20027;-57
2023/12/10 07:09:38;;;;;;;12.07;2.50;;;;;;;;;;8278137;28;20020;-56
2023/12/10 07:13:38;;;;;;;21.45;3.45;;;;;;;;;;8275864;28;20040;-57
2023/12/10 07:17:38;;;;;;;17.05;2.83;;;;;;;;;;8274105;28;20082;-58
2023/12/10 07:21:38;;;;;;;19.98;3.50;;;;;;;;;;8282114;28;20025;-55
2023/12/10 07:25:38;;;;;;;12.65;2.67;;;;;;;;;;8282855;28;20954;-56
2023/12/10 07:29:39;;;;;;;17.17;3.10;;;;;;;;;;8282720;28;20029;-57
2023/12/10 07:33:39;;;;;;;18.95;3.17;;;;;;;;;;8274913;28;20397;-56
2023/12/10 07:37:39;;;;;;;10.82;2.40;;;;;;;;;;8273277;28;20036;-56
2023/12/10 07:41:39;;;;;;;14.70;2.60;;;;;;;;;;8275398;28;20032;-59
2023/12/10 07:45:39;;;;;;;15.17;2.47;;;;;;;;;;8296575;28;20037;-58
2023/12/10 07:49:40;;;;;;;14.27;2.67;;;;;;;;;;8272720;28;20553;-58
2023/12/10 07:53:42;;;;;;;12.93;3.17;;;;;;;;;;8278561;28;20155;-57
2023/12/10 07:57:42;;;;;;;15.70;3.00;;;;;;;;;;8277874;28;20517;-57
2023/12/10 08:01:42;;;;;;;17.33;2.97;;;;;;;;;;8276919;28;20148;-56
2023/12/10 08:05:42;;;;;;;21.60;3.53;;;;;;;;;;8273393;28;20032;-57
2023/12/10 08:09:43;;;;;;;13.90;2.60;;;;;;;;;;8276520;28;20029;-57
2023/12/10 08:13:43;;;;;;;20.63;4.45;;;;;;;;;;8274252;28;20025;-56
2023/12/10 08:17:44;;;;;;;18.80;3.27;;;;;;;;;;8270834;28;20124;-56
2023/12/10 08:21:45;;;;;;;14.70;3.13;;;;;;;;;;8302316;28;20472;-58
2023/12/10 08:25:46;;;;;;;18.55;3.25;;;;;;;;;;8287705;28;20028;-59
2023/12/10 08:29:46;;;;;;;16.52;3.00;;;;;;;;;;8288802;28;20155;-58
2023/12/10 08:33:47;;;;;;;14.15;2.83;;;;;;;;;;8288455;28;20049;-56
2023/12/10 08:37:47;;;;;;;17.77;3.10;;;;;;;;;;8282161;28;20024;-57
2023/12/10 08:41:48;;;;;;;16.15;3.38;;;;;;;;;;8273384;28;20089;-57
2023/12/10 08:45:48;;;;;;;18.80;2.92;;;;;;;;;;8274347;28;20048;-56
2023/12/10 08:49:48;;;;;;;15.10;2.75;;;;;;;;;;8274886;28;20057;-56
2023/12/10 08:53:48;;;;;;;17.67;3.10;;;;;;;;;;8292405;28;20032;-57
2023/12/10 08:57:49;;;;;;;18.75;3.17;;;;;;;;;;8275521;28;20055;-57
2023/12/10 09:01:49;;;;;;;17.08;2.80;;;;;;;;;;8272106;28;20593;-56
2023/12/10 09:05:50;;;;;;;18.02;3.00;;;;;;;;;;8273667;28;20028;-57
2023/12/10 09:09:51;;;;;;;17.73;3.58;;;;;;;;;;8272244;28;21027;-57
2023/12/10 09:13:51;;;;;;;18.40;2.95;;;;;;;;;;8274182;28;20057;-57
2023/12/10 09:17:51;;;;;;;14.63;3.08;;;;;;;;;;8270868;28;20067;-57
2023/12/10 09:21:51;;;;;;;21.05;2.88;;;;;;;;;;8275232;28;20039;-56
2023/12/10 09:25:51;;;;;;;15.98;2.83;;;;;;;;;;8269821;28;20013;-55
2023/12/10 09:29:51;;;;;;;18.38;3.15;;;;;;;;;;8270809;28;20115;-58
2023/12/10 09:33:52;;;;;;;13.13;2.63;;;;;;;;;;8270508;28;20037;-56
2023/12/10 09:37:52;;;;;;;15.48;3.13;;;;;;;;;;8272290;28;20036;-57
2023/12/10 09:41:55;;;;;;;18.80;3.05;;;;;;;;;;8272792;28;20024;-57
2023/12/10 09:45:55;;;;;;;16.40;2.80;;;;;;;;;;8271576;28;20045;-57
2023/12/10 09:49:58;;;;;;;14.00;3.20;;;;;;;;;;8277507;28;20025;-56
2023/12/10 09:53:58;;;;;;;11.18;2.10;;;;;;;;;;8279920;28;20049;-56
2023/12/10 09:57:58;;;;;;;15.10;2.67;;;;;;;;;;8274582;28;20020;-58
2023/12/10 10:01:58;;;;;;;21.10;3.20;;;;;;;;;;8274454;28;20096;-56
2023/12/10 10:05:59;;;;;;;19.13;2.70;;;;;;;;;;8272867;28;20266;-59
2023/12/10 10:09:59;;;;;;;14.82;2.60;;;;;;;;;;8271104;28;20021;-58
2023/12/10 10:13:59;;;;;;;13.50;2.67;;;;;;;;;;8268347;28;20025;-59
2023/12/10 10:18:00;;;;;;;14.20;2.72;;;;;;;;;;8273381;28;20282;-58
2023/12/10 10:22:00;;;;;;;12.40;2.60;;;;;;;;;;8268227;28;20105;-59
2023/12/10 10:26:00;;;;;;;10.27;2.40;;;;;;;;;;8270235;28;20028;-65
2023/12/10 10:30:03;;;;;;;13.85;2.75;;;;;;;;;;8271909;28;20033;-58
2023/12/10 10:34:04;;;;;;;15.75;2.83;;;;;;;;;;8272347;28;20055;-57
2023/12/10 10:38:04;;;;;;;21.63;3.13;;;;;;;;;;8272350;28;20107;-57
2023/12/10 10:42:08;;;;;;;13.93;2.58;;;;;;;;;;8277304;28;20025;-57
2023/12/10 10:46:08;;;;;;;10.90;2.70;;;;;;;;;;8275844;28;20067;-58
2023/12/10 10:50:09;;;;;;;13.25;2.70;;;;;;;;;;8270425;28;20036;-58
2023/12/10 10:54:10;;;;;;;12.85;2.45;;;;;;;;;;8277205;28;20046;-56
2023/12/10 10:58:24;;;;;;;20.70;3.22;;;;;;;;;;8271375;28;20697;-58
2023/12/10 11:02:24;;;;;;;15.95;2.90;;;;;;;;;;8273024;28;20254;-58
2023/12/10 11:06:25;;;;;;;17.83;2.95;;;;;;;;;;8276499;28;20028;-58
2023/12/10 11:10:25;;;;;;;20.60;3.55;;;;;;;;;;8276445;28;20056;-58
2023/12/10 11:14:28;;;;;;;15.55;2.67;;;;;;;;;;8279479;28;20025;-58
2023/12/10 11:18:28;;;;;;;20.90;3.30;;;;;;;;;;8280270;28;20068;-58
2023/12/10 11:22:28;;;;;;;16.63;2.42;;;;;;;;;;8280798;28;20036;-56
2023/12/10 11:26:29;;;;;;;19.05;3.42;;;;;;;;;;8276609;28;20032;-57
2023/12/10 11:30:29;;;;;;;17.02;3.10;;;;;;;;;;8277682;28;20037;-58
2023/12/10 11:34:29;;;;;;;15.82;2.97;;;;;;;;;;8277305;28;20013;-57
2023/12/10 11:38:29;;;;;;;14.60;3.17;;;;;;;;;;8280581;28;20406;-58
2023/12/10 11:42:29;;;;;;;20.17;2.92;;;;;;;;;;8278562;28;20021;-56
2023/12/10 11:46:30;;;;;;;14.30;3.30;;;;;;;;;;8279312;28;20137;-57
2023/12/10 11:50:34;;;;;;;19.27;3.33;;;;;;;;;;8271763;28;20091;-58
2023/12/10 11:54:34;;;;;;;;;;;;;;;;;;8273909;28;20021;-56
2023/12/10 11:58:35;;;;;;;19.48;3.15;;;;;;;;;;8282203;28;19923;-56
2023/12/10 12:02:42;;;;;;;13.05;2.28;;;;;;;;;;8285159;28;20555;-57
2023/12/10 12:06:43;;;;;;;15.60;2.90;;;;;;;;;;8287909;28;20078;-57
2023/12/10 12:10:43;;;;;;;12.18;2.50;;;;;;;;;;8282278;28;20098;-57
2023/12/10 12:14:43;;;;;;;18.10;3.85;;;;;;;;;;8278766;28;20037;-57
2023/12/10 12:18:44;;;;;;;18.58;3.25;;;;;;;;;;8279142;28;20088;-58
2023/12/10 12:22:44;;;;;;;15.00;3.35;;;;;;;;;;8279261;28;20021;-58
2023/12/10 12:26:44;;;;;;;21.70;3.33;;;;;;;;;;8277238;28;20524;-58
2023/12/10 12:30:45;;;;;;;19.20;3.67;;;;;;;;;;8277051;28;20041;-57
2023/12/10 12:34:45;;;;;;;16.43;3.60;;;;;;;;;;8275026;28;20071;-58
2023/12/10 12:38:46;;;;;;;19.08;3.72;;;;;;;;;;8278359;28;20287;-57
2023/12/10 12:42:49;;;;;;;13.23;2.55;;;;;;;;;;8276131;28;20013;-57
2023/12/10 12:46:49;;;;;;;19.23;3.58;;;;;;;;;;8277247;28;20033;-57
2023/12/10 12:50:50;;;;;;;22.00;3.92;;;;;;;;;;8275757;28;20102;-56
2023/12/10 12:54:51;;;;;;;17.70;3.15;;;;;;;;;;8280481;28;20032;-56
2023/12/10 12:58:52;;;;;;;22.38;3.60;;;;;;;;;;8282338;28;20033;-58
2023/12/10 13:02:52;;;;;;;20.23;3.20;;;;;;;;;;8279108;28;21909;-58
2023/12/10 13:06:53;;;;;;;22.83;3.67;;;;;;;;;;8282544;28;20234;-58
2023/12/10 13:10:53;;;;;;;14.75;3.30;;;;;;;;;;8278380;28;20033;-58
2023/12/10 13:14:55;;;;;;;18.05;3.35;;;;;;;;;;8275435;28;22790;-58
2023/12/10 13:18:56;;;;;;;14.85;3.35;;;;;;;;;;8269599;28;22705;-56
2023/12/10 13:22:56;;;;;;;13.23;2.63;;;;;;;;;;8276257;28;20860;-58
2023/12/10 13:26:56;;;;;;;18.48;4.00;;;;;;;;;;8273692;28;20063;-56
2023/12/10 13:30:57;;;;;;;19.45;3.60;;;;;;;;;;8272314;28;20045;-56
2023/12/10 13:34:58;;;;;;;13.45;3.25;;;;;;;;;;8272553;28;20110;-57
2023/12/10 13:38:58;;;;;;;19.67;3.53;;;;;;;;;;8279175;28;20025;-57
2023/12/10 13:42:58;;;;;;;22.33;3.57;;;;;;;;;;8273502;28;20037;-57
2023/12/10 13:46:59;;;;;;;19.02;3.55;;;;;;;;;;8275519;28;20037;-57
2023/12/10 13:50:59;;;;;;;17.88;3.95;;;;;;;;;;8270302;28;20553;-55
2023/12/10 13:54:59;;;;;;;14.68;2.90;;;;;;;;;;8273893;28;20029;-57
2023/12/10 13:58:59;;;;;;;22.92;3.58;;;;;;;;;;8275213;28;20222;-56
2023/12/10 14:03:00;;;;;;;19.98;3.28;;;;;;;;;;8269912;28;20091;-55
2023/12/10 14:07:01;;;;;;;20.20;3.33;;;;;;;;;;8275576;28;20021;-56
2023/12/10 14:11:01;;;;;;;15.02;3.15;;;;;;;;;;8274266;28;20033;-57
2023/12/10 14:15:02;;;;;;;22.77;3.78;;;;;;;;;;8273594;28;21134;-55
2023/12/10 14:19:02;;;;;;;18.05;3.40;;;;;;;;;;8272736;28;20037;-57
2023/12/10 14:23:03;;;;;;;10.93;2.95;;;;;;;;;;8272090;28;20535;-57
2023/12/10 14:27:03;;;;;;;16.30;3.30;;;;;;;;;;8276956;28;20363;-57
2023/12/10 14:31:03;;;;;;;12.82;3.10;;;;;;;;;;8272724;28;20032;-57
2023/12/10 14:35:03;;;;;;;13.50;3.45;;;;;;;;;;8274269;28;20017;-61
2023/12/10 14:39:05;;;;;;;14.82;2.92;;;;;;;;;;8273225;28;20029;-57
2023/12/10 14:43:05;;;;;;;15.10;2.88;;;;;;;;;;8273253;28;20952;-58
2023/12/10 14:47:06;;;;;;;15.88;3.00;;;;;;;;;;8272825;28;20083;-57
2023/12/10 14:51:08;;;;;;;18.10;2.93;;;;;;;;;;8271460;28;20099;-57
2023/12/10 14:55:08;;;;;;;13.88;3.10;;;;;;;;;;8274769;28;20078;-57
2023/12/10 14:59:08;;;;;;;12.82;2.35;;;;;;;;;;8270667;28;20028;-56
2023/12/10 15:03:09;;;;;;;17.20;3.10;;;;;;;;;;8272465;28;20109;-56
2023/12/10 15:07:10;;;;;;;16.17;2.88;;;;;;;;;;8278186;28;20808;-57
2023/12/10 15:11:10;;;;;;;15.52;2.95;;;;;;;;;;8274415;28;20032;-57
2023/12/10 15:15:10;;;;;;;12.88;2.20;;;;;;;;;;8274180;28;20067;-57
2023/12/10 15:19:11;;;;;;;16.42;2.97;;;;;;;;;;8273498;28;20569;-58
2023/12/10 15:23:11;;;;;;;12.30;2.67;;;;;;;;;;8269117;28;20056;-58
2023/12/10 15:27:11;;;;;;;14.88;2.97;;;;;;;;;;8270747;28;20268;-57
2023/12/10 15:31:12;;;;;;;10.50;2.58;;;;;;;;;;8278693;28;20040;-58
2023/12/10 15:35:12;;;;;;;17.83;3.72;;;;;;;;;;8277708;28;20025;-58
2023/12/10 15:39:13;;;;;;;11.10;2.85;;;;;;;;;;8276826;28;20036;-57
2023/12/10 15:43:13;;;;;;;12.40;2.30;;;;;;;;;;8275299;28;20021;-57
2023/12/10 15:47:14;;;;;;;14.55;2.80;;;;;;;;;;8276408;28;20124;-56
2023/12/10 15:51:14;;;;;;;11.52;2.53;;;;;;;;;;8279142;28;20029;-57
2023/12/10 15:55:15;;;;;;;18.97;3.73;;;;;;;;;;8289141;28;20035;-58
2023/12/10 15:59:15;;;;;;;14.65;2.70;;;;;;;;;;8289182;28;20284;-56
2023/12/10 16:03:15;;;;;;;9.65;2.78;;;;;;;;;;8283479;28;20059;-57
2023/12/10 16:07:15;;;;;;;10.95;2.22;;;;;;;;;;8288467;28;20123;-57
2023/12/10 16:11:16;;;;;;;14.88;2.83;;;;;;;;;;8287681;28;20104;-58
2023/12/10 16:15:16;;;;;;;11.80;2.72;;;;;;;;;;8287169;28;20033;-58
2023/12/10 16:19:17;;;;;;;13.95;2.00;;;;;;;;;;8286519;28;20029;-58
2023/12/10 16:23:17;;;;;;;11.20;2.75;;;;;;;;;;8287486;28;20037;-57
2023/12/10 16:27:17;;;;;;;9.23;2.23;;;;;;;;;;8286080;28;20021;-58
2023/12/10 16:31:17;;;;;;;12.35;2.55;;;;;;;;;;8279841;28;20118;-58
2023/12/10 16:35:18;;;;;;;12.80;2.42;;;;;;;;;;8282952;28;20833;-58
2023/12/10 16:39:18;;;;;;;10.63;2.20;;;;;;;;;;8279272;28;20145;-57
2023/12/10 16:43:18;;;;;;;11.80;2.45;;;;;;;;;;8283493;28;20819;-58
2023/12/10 16:47:18;;;;;;;17.73;2.72;;;;;;;;;;8282122;28;20125;-57
2023/12/10 16:51:19;;;;;;;16.67;2.72;;;;;;;;;;8279104;28;20032;-58
2023/12/10 16:55:19;;;;;;;9.55;2.25;;;;;;;;;;8280704;28;20025;-57
2023/12/10 16:59:19;;;;;;;15.33;3.10;;;;;;;;;;8283775;28;20699;-57
2023/12/10 17:03:19;;;;;;;13.13;2.38;;;;;;;;;;8280717;28;20052;-57
2023/12/10 17:07:20;;;;;;;11.23;2.63;;;;;;;;;;8296191;28;20091;-58
2023/12/10 17:11:20;;;;;;;15.50;2.60;;;;;;;;;;8279655;28;20106;-58
2023/12/10 17:15:21;;;;;;;15.03;2.90;;;;;;;;;;8285402;28;20025;-57
2023/12/10 17:19:21;;;;;;;13.93;2.60;;;;;;;;;;8285294;28;20337;-57
2023/12/10 17:23:21;;;;;;;14.17;2.43;;;;;;;;;;8277870;28;20028;-58
2023/12/10 17:27:22;;;;;;;16.83;2.95;;;;;;;;;;8284111;28;20734;-58
2023/12/10 17:31:22;;;;;;;14.45;2.40;;;;;;;;;;8282030;28;20052;-58
2023/12/10 17:35:23;;;;;;;15.63;2.40;;;;;;;;;;8285258;28;20055;-58
2023/12/10 17:39:23;;;;;;;15.57;2.47;;;;;;;;;;8282313;28;20357;-56
2023/12/10 17:43:24;;;;;;;15.27;2.92;;;;;;;;;;8290857;28;20029;-57
2023/12/10 17:47:25;;;;;;;14.38;2.60;;;;;;;;;;8287649;28;20036;-57
2023/12/10 17:51:25;;;;;;;19.17;3.93;;;;;;;;;;8276208;28;20029;-57
2023/12/10 17:55:26;;;;;;;18.73;2.97;;;;;;;;;;8281396;28;20275;-57
2023/12/10 17:59:26;;;;;;;13.80;2.70;;;;;;;;;;8274783;28;20326;-58
2023/12/10 18:03:26;;;;;;;10.75;2.58;;;;;;;;;;8278881;28;20144;-58
2023/12/10 18:07:26;;;;;;;19.67;3.60;;;;;;;;;;8275745;28;20033;-59
2023/12/10 18:11:27;;;;;;;16.40;4.57;;;;;;;;;;8285497;28;20032;-58
2023/12/10 18:15:27;;;;;;;16.03;3.83;;;;;;;;;;8280164;28;20048;-57
2023/12/10 18:19:27;;;;;;;14.75;3.00;;;;;;;;;;8279705;28;20119;-57
2023/12/10 18:23:27;;;;;;;14.15;2.90;;;;;;;;;;8277870;28;20048;-58
2023/12/10 18:27:28;;;;;;;13.97;2.20;;;;;;;;;;8275167;28;20021;-58
2023/12/10 18:31:28;;;;;;;13.40;3.08;;;;;;;;;;8277406;28;20273;-58
2023/12/10 18:35:29;;;;;;;12.52;2.53;;;;;;;;;;8281927;28;20935;-58
2023/12/10 18:39:29;;;;;;;15.63;2.78;;;;;;;;;;8278589;28;20017;-59
2023/12/10 18:43:29;;;;;;;18.05;3.33;;;;;;;;;;8284361;28;20381;-56
2023/12/10 18:47:29;;;;;;;17.53;3.20;;;;;;;;;;8280361;28;20155;-58
2023/12/10 18:51:30;;;;;;;10.80;1.95;;;;;;;;;;8288922;28;20280;-56
2023/12/10 18:55:30;;;;;;;13.95;2.50;;;;;;;;;;8284183;28;20033;-57
2023/12/10 18:59:30;;;;;;;6.70;2.05;;;;;;;;;;8280487;28;20033;-58
2023/12/10 19:03:30;;;;;;;9.02;2.35;;;;;;;;;;8279589;28;20041;-56
2023/12/10 19:07:31;;;;;;;12.93;2.50;;;;;;;;;;8278342;28;20079;-54
2023/12/10 19:11:31;;;;;;;14.45;2.60;;;;;;;;;;8283026;28;20032;-57
2023/12/10 19:15:31;;;;;;;10.20;2.15;;;;;;;;;;8283553;28;20059;-57
2023/12/10 19:19:32;;;;;;;12.10;2.25;;;;;;;;;;8283167;28;20082;-57
2023/12/10 19:23:32;;;;;;;10.43;2.08;;;;;;;;;;8281822;28;20029;-57
2023/12/10 19:27:32;;;;;;;8.73;1.80;;;;;;;;;;8296350;28;20032;-57
2023/12/10 19:31:33;;;;;;;8.25;2.20;;;;;;;;;;8287610;28;20041;-58
2023/12/10 19:35:33;;;;;;;10.95;2.38;;;;;;;;;;8280720;28;20025;-58
2023/12/10 19:39:34;;;;;;;5.28;1.52;;;;;;;;;;8276707;28;20027;-57
2023/12/10 19:43:35;;;;;;;11.93;1.98;;;;;;;;;;8281072;28;20113;-58
2023/12/10 19:47:35;;;;;;;10.13;2.20;;;;;;;;;;8284816;28;20030;-57
2023/12/10 19:51:35;;;;;;;10.30;2.50;;;;;;;;;;8283620;28;20538;-58
2023/12/10 19:55:35;;;;;;;10.93;1.93;;;;;;;;;;8276540;28;20764;-55
2023/12/10 19:59:37;;;;;;;12.95;1.98;;;;;;;;;;8268738;28;20764;-57
2023/12/10 20:03:38;;;;;;;9.23;1.75;;;;;;;;;;8266302;28;20938;-57
2023/12/10 20:07:38;;;;;;;8.85;2.60;;;;;;;;;;8262629;28;20025;-57
2023/12/10 20:11:38;;;;;;;10.75;2.28;;;;;;;;;;8267118;28;20017;-58
2023/12/10 20:15:38;;;;;;;5.68;1.70;;;;;;;;;;8275214;28;20039;-58
2023/12/10 20:19:39;;;;;;;7.88;2.13;;;;;;;;;;8270086;28;20031;-58
2023/12/10 20:23:40;;;;;;;9.65;2.03;;;;;;;;;;8275553;28;20025;-58
2023/12/10 20:27:40;;;;;;;6.88;2.00;;;;;;;;;;8273982;28;20047;-56
2023/12/10 20:31:42;;;;;;;4.10;1.30;;;;;;;;;;8275787;28;20032;-57
2023/12/10 20:35:43;;;;;;;5.78;1.50;;;;;;;;;;8272572;28;20032;-57
2023/12/10 20:39:45;;;;;;;4.78;1.40;;;;;;;;;;8274480;28;20021;-56
2023/12/10 20:43:45;;;;;;;8.20;2.22;;;;;;;;;;8275474;28;20093;-60
2023/12/10 20:47:46;;;;;;;6.32;1.60;;;;;;;;;;8273812;28;20183;-57
2023/12/10 20:51:46;;;;;;;4.80;1.67;;;;;;;;;;8275310;28;20090;-56
2023/12/10 20:55:47;;;;;;;9.20;1.75;;;;;;;;;;8273278;28;20025;-58
2023/12/10 20:59:47;;;;;;;8.60;1.85;;;;;;;;;;8275414;28;20017;-57
2023/12/10 21:03:47;;;;;;;5.35;1.63;;;;;;;;;;8272263;28;20037;-58
2023/12/10 21:07:47;;;;;;;6.78;1.58;;;;;;;;;;8275244;28;20025;-55
2023/12/10 21:11:47;;;;;;;8.68;1.70;;;;;;;;;;8272915;28;20173;-56
2023/12/10 21:15:48;;;;;;;3.25;1.20;;;;;;;;;;8271354;28;20044;-58
2023/12/10 21:19:49;;;;;;;5.17;1.60;;;;;;;;;;8283181;28;20021;-57
2023/12/10 21:23:49;;;;;;;5.05;1.15;;;;;;;;;;8285716;28;20271;-57
2023/12/10 21:27:50;;;;;;;5.13;1.43;;;;;;;;;;8287536;28;20040;-57
2023/12/10 21:31:50;;;;;;;4.97;1.48;;;;;;;;;;8275377;28;20032;-57
2023/12/10 21:35:50;;;;;;;4.87;1.50;;;;;;;;;;8273229;28;20079;-56
2023/12/10 21:39:51;;;;;;;2.65;1.00;;;;;;;;;;8273197;28;20291;-57
2023/12/10 21:43:51;;;;;;;3.00;0.90;;;;;;;;;;8275524;28;20026;-58
2023/12/10 21:47:51;;;;;;;2.55;0.90;;;;;;;;;;8277643;28;20280;-60
2023/12/10 21:51:51;;;;;;;2.75;0.90;;;;;;;;;;8277179;28;20040;-58
2023/12/10 21:55:52;;;;;;;1.90;0.90;;;;;;;;;;8278531;28;20040;-57
2023/12/10 21:59:52;;;;;;;1.13;0.80;;;;;;;;;;8276415;28;22066;-57
2023/12/10 22:03:52;;;;;;;2.13;0.93;;;;;;;;;;8282800;28;20033;-56
2023/12/10 22:07:52;;;;;;;1.90;0.80;;;;;;;;;;8277913;28;20264;-58
2023/12/10 22:11:52;;;;;;;2.30;0.80;;;;;;;;;;8281054;28;20025;-57
2023/12/10 22:15:53;;;;;;;2.90;0.90;;;;;;;;;;8277854;28;20276;-57
2023/12/10 22:19:53;;;;;;;1.98;0.70;;;;;;;;;;8281500;28;20228;-57
2023/12/10 22:23:54;;;;;;;1.25;0.75;;;;;;;;;;8276451;28;20140;-57
2023/12/10 22:27:54;;;;;;;1.37;0.60;;;;;;;;;;8279793;28;20018;-56
2023/12/10 22:31:54;;;;;;;3.33;1.00;;;;;;;;;;8275286;28;20276;-58
2023/12/10 22:35:54;;;;;;;1.70;0.90;;;;;;;;;;8279786;28;20018;-57
2023/12/10 22:39:56;;;;;;;3.53;0.93;;;;;;;;;;8274262;28;20060;-57
2023/12/10 22:43:56;;;;;;;0.68;0.68;;;;;;;;;;8280362;28;21540;-57
2023/12/10 22:47:56;;;;;;;0.70;0.70;;;;;;;;;;8275118;28;20048;-57
2023/12/10 22:51:56;;;;;;;1.73;0.70;;;;;;;;;;8270936;28;21945;-58
2023/12/10 22:55:58;;;;;;;1.30;0.80;;;;;;;;;;8275097;28;20686;-58
2023/12/10 22:59:58;;;;;;;1.63;0.75;;;;;;;;;;8272836;28;20095;-58
2023/12/10 23:03:58;;;;;;;1.83;0.80;;;;;;;;;;8275223;28;20029;-58
2023/12/10 23:07:58;;;;;;;3.88;0.80;;;;;;;;;;8276015;28;20299;-57
2023/12/10 23:11:59;;;;;;;2.60;1.13;;;;;;;;;;8275520;28;20024;-56
2023/12/10 23:16:02;;;;;;;1.30;0.73;;;;;;;;;;8274911;28;20130;-57
2023/12/10 23:20:04;;;;;;;2.17;0.75;;;;;;;;;;8271072;28;20018;-57
2023/12/10 23:24:04;;;;;;;1.58;0.80;;;;;;;;;;8273832;28;20798;-56
2023/12/10 23:28:04;;;;;;;0.70;0.70;;;;;;;;;;8278595;28;20518;-56
2023/12/10 23:32:05;;;;;;;1.13;0.90;;;;;;;;;;8284919;28;20033;-56
2023/12/10 23:36:05;;;;;;;1.88;0.70;;;;;;;;;;8283890;28;20609;-56
2023/12/10 23:40:05;;;;;;;0.88;0.77;;;;;;;;;;8281990;28;20028;-55
2023/12/10 23:44:07;;;;;;;2.15;0.95;;;;;;;;;;8276192;28;20086;-56